Home   Weather   Denmark   Aarhus   Past weeks
Flag for Denmark

Past Weather in Aarhus, Denmark — Yesterday and Last 2 Weeks

Currently: 59 °F. Partly sunny. (Weather station: Tirstrup, Denmark). See more current weather

Past Weather in Aarhus — Graph

°F

Aarhus Temperature Yesterday

Maximum temperature yesterday: 70 °F (at 4:20 pm)
Minimum temperature yesterday: 57 °F (at 11:20 pm)
Average temperature yesterday: 65 °F

High & Low Weather Summary for the Past Weeks

 TemperatureHumidityPressure
High81 °F (Jul 21, 2:50 pm)100% (Jul 13, 2:20 pm)30.18 "Hg (Jul 13, 2:20 pm)
Low48 °F (Jul 9, 3:50 am)37% (Jul 21, 5:50 pm)29.74 "Hg (Jul 22, 6:50 am)
Average64 °F76%29.93 "Hg
* Reported Jul 8 6:20 am — Jul 23 6:20 am, Aarhus. Weather by CustomWeather, © 2024

Note: Actual official high and low records may vary slightly from our data, if they occured in-between our weather recording intervals... More about our weather records

Aarhus Weather History for the Previous 24 Hours

Scroll right to see more
 ConditionsComfort  
Time TempWeatherWind HumidityBarometerVisibility
6:20 am
Tue, Jul 23
57 °FOvercast.1 mph94%29.95 "HgN/A
5:50 am57 °FPartly sunny.2 mph88%29.95 "HgN/A
5:20 am55 °FPartly sunny.2 mph88%29.98 "HgN/A
4:50 am54 °FPassing clouds.1 mph88%29.98 "HgN/A
4:20 am54 °FClear.1 mph88%29.98 "HgN/A
3:50 am54 °FClear.2 mph94%29.98 "HgN/A
3:20 am55 °FClear.1 mph88%29.98 "HgN/A
2:50 am55 °FClear.1 mph88%29.98 "HgN/A
2:20 am55 °FClear.2 mph88%29.98 "HgN/A
1:50 am55 °FClear.5 mph82%29.98 "HgN/A
1:20 am55 °FClear.6 mph88%29.98 "HgN/A
12:50 am57 °FClear.3 mph82%29.98 "HgN/A
12:20 am57 °FClear.5 mph82%29.98 "HgN/A
11:50 pm
Mon, Jul 22
57 °FClear.7 mph82%29.98 "HgN/A
11:20 pm57 °FPassing clouds.6 mph82%29.98 "HgN/A
10:20 pm61 °FFog.3 mph68%29.98 "Hg2 mi
9:50 pm61 °FPassing clouds.6 mph68%29.98 "HgN/A
8:50 pm64 °FPassing clouds.9 mph64%29.95 "HgN/A
8:20 pm66 °FPassing clouds.10 mph60%29.95 "HgN/A
7:50 pm66 °FPassing clouds.16 mph60%29.92 "HgN/A
7:20 pm66 °FPassing clouds.15 mph60%29.92 "HgN/A
6:50 pm68 °FPassing clouds.14 mph56%29.92 "HgN/A
6:20 pm68 °FPassing clouds.16 mph56%29.92 "HgN/A
5:50 pm70 °FPassing clouds.16 mph53%29.92 "HgN/A
5:20 pm68 °FPassing clouds.16 mph60%29.89 "HgN/A
4:50 pm70 °FPassing clouds.17 mph60%29.89 "HgN/A
4:20 pm70 °FScattered clouds.15 mph57%29.89 "HgN/A
3:50 pm68 °FOvercast.14 mph64%29.89 "HgN/A
3:20 pm66 °FOvercast.15 mph73%29.89 "HgN/A
2:50 pm66 °FOvercast.14 mph73%29.89 "HgN/A
2:20 pm64 °FOvercast.15 mph83%29.86 "HgN/A
1:50 pm64 °FOvercast.15 mph83%29.86 "HgN/A
1:20 pm63 °FOvercast.15 mph88%29.86 "HgN/A
12:50 pm63 °FLow clouds.13 mph94%29.86 "HgN/A
12:20 pm63 °FLow clouds.14 mph94%29.83 "HgN/A
11:50 am64 °FLow clouds.13 mph94%29.83 "HgN/A
11:20 am64 °FLow clouds.14 mph94%29.83 "HgN/A
10:20 am64 °FLight rain. Low clouds.9 mph94%29.80 "HgN/A
9:50 am64 °FRain. Low clouds.9 mph94%29.77 "Hg3 mi
9:20 am64 °FLight rain. Overcast.9 mph94%29.77 "Hg4 mi
8:50 am66 °FThunderstorms. Low clouds.6 mph94%29.77 "Hg1 mi
8:20 am66 °FRain. Low clouds.3 mph94%29.74 "Hg1 mi
7:50 am66 °FRain. Low clouds.7 mph94%29.74 "HgN/A
7:20 am64 °FHeavy rain. Partly sunny.6 mph94%29.74 "Hg3 mi
Weather by CustomWeather, © 2024

See weather overview